^^
Station Historical Data
 
Daily Summary for March 18, 2019 Units:  English    Metric   Both
« Previous Day
Next Day »
Daily Weekly Monthly Yearly Custom
  Current: High: Low: Average:
Temperature: 35.5 °F 35.5 °F 15.9 °F 22.3 °F
Dew Point: 24.9 °F 25.0 °F 11.9 °F 16.5 °F
Humidity: 65% 95% 63% 79%
Wind Speed: 12.0mph 12.0mph 1.0mph 5mph
Wind Gust: 14.0mph 15.0mph - -
WindSSW - - SW
Pressure: 30.15 in 30.41 in 30.15 in -
Precipitation: 0.00 in      
Historical Graphs
 
 
Tabular Data for March 18, 2019
Time Temperature Dew Point Pressure Wind Wind Speed Wind Gust Humidity Rainfall Rate (Hourly) solar Conditions
00:04 23.2 °F 19.4 °F 30.40 in WSW 3.0 mph 6.0 mph 85% 0.00 in 0.00 W/m2
00:09 23.0 °F 19.4 °F 30.41 in WSW 4.0 mph 6.0 mph 86% 0.00 in 0.00 W/m2
00:14 22.7 °F 19.1 °F 30.41 in WSW 5.0 mph 5.0 mph 86% 0.00 in 0.00 W/m2
00:19 22.6 °F 19.3 °F 30.40 in West 4.0 mph 6.0 mph 87% 0.00 in 0.00 W/m2
00:24 22.8 °F 19.8 °F 30.41 in West 4.0 mph 6.0 mph 88% 0.00 in 0.00 W/m2
00:29 23.0 °F 20.0 °F 30.41 in West 3.0 mph 5.0 mph 88% 0.00 in 0.00 W/m2
00:34 23.0 °F 21.8 °F 30.41 in West 4.0 mph 5.0 mph 95% 0.00 in 0.00 W/m2
00:39 22.9 °F 19.9 °F 30.40 in West 4.0 mph 5.0 mph 88% 0.00 in 0.00 W/m2
00:44 22.9 °F 19.9 °F 30.40 in West 3.0 mph 5.0 mph 88% 0.00 in 0.00 W/m2
00:49 22.8 °F 19.8 °F 30.41 in West 3.0 mph 5.0 mph 88% 0.00 in 0.00 W/m2
00:54 22.6 °F 19.3 °F 30.41 in West 3.0 mph 5.0 mph 87% 0.00 in 0.00 W/m2
00:59 22.4 °F 19.4 °F 30.41 in WSW 4.0 mph 5.0 mph 88% 0.00 in 0.00 W/m2
01:04 22.3 °F 19.3 °F 30.41 in WSW 3.0 mph 5.0 mph 88% 0.00 in 0.00 W/m2
01:09 22.1 °F 19.1 °F 30.41 in WSW 4.0 mph 5.0 mph 88% 0.00 in 0.00 W/m2
01:14 21.9 °F 18.9 °F 30.41 in WSW 3.0 mph 5.0 mph 88% 0.00 in 0.00 W/m2
01:19 21.6 °F 18.6 °F 30.41 in SW 3.0 mph 5.0 mph 88% 0.00 in 0.00 W/m2
01:24 21.6 °F 18.9 °F 30.41 in WSW 3.0 mph 5.0 mph 89% 0.00 in 0.00 W/m2
01:29 21.7 °F 19.0 °F 30.41 in WSW 3.0 mph 5.0 mph 89% 0.00 in 0.00 W/m2
01:34 21.6 °F 18.6 °F 30.41 in WSW 4.0 mph 5.0 mph 88% 0.00 in 0.00 W/m2
01:39 21.5 °F 18.5 °F 30.41 in WSW 4.0 mph 5.0 mph 88% 0.00 in 0.00 W/m2
01:44 21.3 °F 18.3 °F 30.41 in SW 3.0 mph 5.0 mph 88% 0.00 in 0.00 W/m2
01:49 21.1 °F 18.1 °F 30.41 in SW 3.0 mph 5.0 mph 88% 0.00 in 0.00 W/m2
01:54 21.0 °F 18.0 °F 30.41 in SW 4.0 mph 5.0 mph 88% 0.00 in 0.00 W/m2
01:59 20.8 °F 17.8 °F 30.41 in SW 3.0 mph 5.0 mph 88% 0.00 in 0.00 W/m2
02:04 20.7 °F 17.7 °F 30.40 in SW 2.0 mph 5.0 mph 88% 0.00 in 0.00 W/m2
02:09 20.8 °F 17.8 °F 30.40 in SW 2.0 mph 4.0 mph 88% 0.00 in 0.00 W/m2
02:14 21.0 °F 18.0 °F 30.40 in SW 2.0 mph 3.0 mph 88% 0.00 in 0.00 W/m2
02:19 21.2 °F 18.5 °F 30.40 in SW 2.0 mph 3.0 mph 89% 0.00 in 0.00 W/m2
02:24 21.5 °F 18.8 °F 30.40 in SW 3.0 mph 3.0 mph 89% 0.00 in 0.00 W/m2
02:29 21.6 °F 18.6 °F 30.40 in SW 1.0 mph 3.0 mph 88% 0.00 in 0.00 W/m2
02:34 21.6 °F 18.6 °F 30.40 in SW 2.0 mph 3.0 mph 88% 0.00 in 0.00 W/m2
02:39 21.6 °F 18.3 °F 30.40 in SW 2.0 mph 3.0 mph 87% 0.00 in 0.00 W/m2
02:44 21.5 °F 18.2 °F 30.40 in SW 5.0 mph 6.0 mph 87% 0.00 in 0.00 W/m2
02:49 20.9 °F 17.1 °F 30.40 in SW 4.0 mph 6.0 mph 85% 0.00 in 0.00 W/m2
02:54 20.4 °F 16.3 °F 30.40 in SW 4.0 mph 6.0 mph 84% 0.00 in 0.00 W/m2
02:59 19.9 °F 15.8 °F 30.39 in SW 4.0 mph 5.0 mph 84% 0.00 in 0.00 W/m2
03:04 19.7 °F 15.9 °F 30.39 in SW 5.0 mph 5.0 mph 85% 0.00 in 0.00 W/m2
03:09 19.4 °F 15.6 °F 30.39 in SW 4.0 mph 6.0 mph 85% 0.00 in 0.00 W/m2
03:14 19.2 °F 15.4 °F 30.39 in WSW 4.0 mph 6.0 mph 85% 0.00 in 0.00 W/m2
03:19 19.2 °F 15.4 °F 30.39 in WSW 2.0 mph 6.0 mph 85% 0.00 in 0.00 W/m2
03:24 19.3 °F 15.5 °F 30.39 in WSW 3.0 mph 5.0 mph 85% 0.00 in 0.00 W/m2
03:29 19.2 °F 15.4 °F 30.39 in WSW 3.0 mph 5.0 mph 85% 0.00 in 0.00 W/m2
03:34 19.3 °F 15.8 °F 30.39 in WSW 4.0 mph 5.0 mph 86% 0.00 in 0.00 W/m2
03:39 19.3 °F 15.5 °F 30.39 in WSW 5.0 mph 5.0 mph 85% 0.00 in 0.00 W/m2
03:44 18.9 °F 15.1 °F 30.38 in WSW 3.0 mph 5.0 mph 85% 0.00 in 0.00 W/m2
03:49 18.7 °F 14.9 °F 30.38 in WSW 4.0 mph 5.0 mph 85% 0.00 in 0.00 W/m2
03:54 18.7 °F 15.2 °F 30.38 in SW 4.0 mph 4.0 mph 86% 0.00 in 0.00 W/m2
03:59 18.6 °F 15.1 °F 30.38 in SW 5.0 mph 5.0 mph 86% 0.00 in 0.00 W/m2
04:04 18.5 °F 15.0 °F 30.38 in SW 5.0 mph 6.0 mph 86% 0.00 in 0.00 W/m2
04:09 18.5 °F 15.0 °F 30.38 in SW 5.0 mph 6.0 mph 86% 0.00 in 0.00 W/m2
04:14 18.5 °F 15.0 °F 30.38 in SW 5.0 mph 6.0 mph 86% 0.00 in 0.00 W/m2
04:19 18.4 °F 14.6 °F 30.37 in SW 6.0 mph 9.0 mph 85% 0.00 in 0.00 W/m2
04:24 18.5 °F 15.0 °F 30.37 in SW 5.0 mph 9.0 mph 86% 0.00 in 0.00 W/m2
04:29 18.6 °F 15.1 °F 30.37 in SW 4.0 mph 6.0 mph 86% 0.00 in 0.00 W/m2
04:34 18.6 °F 15.1 °F 30.37 in SW 4.0 mph 6.0 mph 86% 0.00 in 0.00 W/m2
04:39 18.8 °F 15.3 °F 30.36 in SW 5.0 mph 6.0 mph 86% 0.00 in 0.00 W/m2
04:44 18.9 °F 15.1 °F 30.36 in SW 5.0 mph 6.0 mph 85% 0.00 in 0.00 W/m2
04:49 18.9 °F 15.1 °F 30.36 in SW 5.0 mph 6.0 mph 85% 0.00 in 0.00 W/m2
04:54 18.6 °F 14.6 °F 30.36 in WSW 5.0 mph 5.0 mph 84% 0.00 in 0.00 W/m2
04:59 18.4 °F 14.4 °F 30.36 in WSW 5.0 mph 6.0 mph 84% 0.00 in 0.00 W/m2
05:04 18.0 °F 14.0 °F 30.36 in SW 6.0 mph 6.0 mph 84% 0.00 in 0.00 W/m2
05:09 17.9 °F 13.9 °F 30.35 in WSW 5.0 mph 7.0 mph 84% 0.00 in 0.00 W/m2
05:14 17.9 °F 14.2 °F 30.36 in WSW 5.0 mph 7.0 mph 85% 0.00 in 0.00 W/m2
05:19 18.0 °F 14.3 °F 30.35 in WSW 4.0 mph 7.0 mph 85% 0.00 in 0.00 W/m2
05:24 18.2 °F 14.4 °F 30.35 in WSW 4.0 mph 5.0 mph 85% 0.00 in 0.00 W/m2
05:29 18.3 °F 14.5 °F 30.35 in WSW 4.0 mph 5.0 mph 85% 0.00 in 0.00 W/m2
05:34 18.2 °F 14.4 °F 30.35 in SW 4.0 mph 5.0 mph 85% 0.00 in 0.00 W/m2
05:39 18.2 °F 14.4 °F 30.34 in SW 5.0 mph 6.0 mph 85% 0.00 in 0.00 W/m2
05:44 18.1 °F 14.4 °F 30.34 in SW 5.0 mph 6.0 mph 85% 0.00 in 0.00 W/m2
05:49 17.9 °F 13.9 °F 30.34 in SW 4.0 mph 5.0 mph 84% 0.00 in 0.00 W/m2
05:54 17.5 °F 13.5 °F 30.34 in SW 4.0 mph 5.0 mph 84% 0.00 in 0.00 W/m2
05:59 17.3 °F 13.3 °F 30.34 in SW 5.0 mph 5.0 mph 84% 0.00 in 0.00 W/m2
06:04 17.2 °F 13.5 °F 30.34 in SW 4.0 mph 5.0 mph 85% 0.00 in 0.00 W/m2
06:09 17.2 °F 13.5 °F 30.34 in SW 3.0 mph 5.0 mph 85% 0.00 in 0.00 W/m2
06:14 17.2 °F 13.5 °F 30.34 in SW 5.0 mph 6.0 mph 85% 0.00 in 0.00 W/m2
06:19 17.2 °F 13.5 °F 30.34 in WSW 4.0 mph 6.0 mph 85% 0.00 in 0.00 W/m2
06:24 17.2 °F 13.5 °F 30.34 in WSW 4.0 mph 6.0 mph 85% 0.00 in 0.00 W/m2
06:29 17.1 °F 13.1 °F 30.34 in SW 3.0 mph 5.0 mph 84% 0.00 in 0.00 W/m2
06:34 16.9 °F 12.9 °F 30.34 in SW 3.0 mph 5.0 mph 84% 0.00 in 0.00 W/m2
06:39 16.7 °F 12.7 °F 30.34 in SW 5.0 mph 5.0 mph 84% 0.00 in 0.00 W/m2
06:44 16.3 °F 12.3 °F 30.33 in SW 4.0 mph 6.0 mph 84% 0.00 in 0.00 W/m2
06:49 15.9 °F 11.9 °F 30.33 in SW 6.0 mph 7.0 mph 84% 0.00 in 0.00 W/m2
06:54 16.1 °F 12.4 °F 30.33 in SW 4.0 mph 7.0 mph 85% 0.00 in 0.00 W/m2
06:59 16.2 °F 12.5 °F 30.33 in SW 5.0 mph 6.0 mph 85% 0.00 in 0.00 W/m2
07:04 16.2 °F 12.5 °F 30.33 in SW 4.0 mph 5.0 mph 85% 0.00 in 0.00 W/m2
07:09 16.1 °F 12.1 °F 30.33 in SW 5.0 mph 5.0 mph 84% 0.00 in 0.00 W/m2
07:14 16.1 °F 12.4 °F 30.33 in SW 5.0 mph 5.0 mph 85% 0.00 in 0.00 W/m2
07:19 16.0 °F 12.3 °F 30.33 in SW 4.0 mph 5.0 mph 85% 0.00 in 0.00 W/m2
07:24 16.0 °F 12.3 °F 30.33 in SW 4.0 mph 5.0 mph 85% 0.00 in 0.00 W/m2
07:29 16.0 °F 12.3 °F 30.32 in SW 4.0 mph 5.0 mph 85% 0.00 in 0.00 W/m2
07:34 15.9 °F 12.2 °F 30.32 in SW 5.0 mph 6.0 mph 85% 0.00 in 0.00 W/m2
07:39 16.0 °F 12.3 °F 30.32 in SW 5.0 mph 6.0 mph 85% 0.00 in 0.00 W/m2
07:44 16.3 °F 12.6 °F 30.32 in SW 6.0 mph 6.0 mph 85% 0.00 in 0.00 W/m2
07:49 16.5 °F 12.8 °F 30.32 in SW 5.0 mph 8.0 mph 85% 0.00 in 0.00 W/m2
07:54 16.6 °F 12.6 °F 30.32 in WSW 6.0 mph 8.0 mph 84% 0.00 in 7.00 W/m2
07:59 16.3 °F 12.0 °F 30.32 in WSW 5.0 mph 7.0 mph 83% 0.00 in 11.00 W/m2
08:04 16.2 °F 11.9 °F 30.32 in WSW 5.0 mph 7.0 mph 83% 0.00 in 16.00 W/m2
08:09 16.5 °F 12.5 °F 30.32 in WSW 5.0 mph 7.0 mph 84% 0.00 in 25.00 W/m2
08:14 16.7 °F 12.4 °F 30.32 in WSW 5.0 mph 7.0 mph 83% 0.00 in 33.00 W/m2
08:19 17.0 °F 12.7 °F 30.32 in WSW 5.0 mph 7.0 mph 83% 0.00 in 44.00 W/m2
08:24 17.0 °F 12.5 °F 30.31 in WSW 4.0 mph 4.0 mph 82% 0.00 in 51.00 W/m2
08:29 16.7 °F 12.2 °F 30.31 in WSW 3.0 mph 4.0 mph 82% 0.00 in 60.00 W/m2
08:34 16.5 °F 12.0 °F 30.31 in SW 2.0 mph 4.0 mph 82% 0.00 in 65.00 W/m2
08:39 16.7 °F 12.2 °F 30.31 in SSW 1.0 mph 4.0 mph 82% 0.00 in 69.00 W/m2
08:44 17.2 °F 12.9 °F 30.31 in SSW 1.0 mph 3.0 mph 83% 0.00 in 86.00 W/m2
08:49 17.8 °F 13.2 °F 30.31 in SSW 2.0 mph 3.0 mph 82% 0.00 in 77.00 W/m2
08:54 18.0 °F 13.2 °F 30.31 in South 4.0 mph 5.0 mph 81% 0.00 in 76.00 W/m2
08:59 18.0 °F 12.9 °F 30.31 in South 4.0 mph 5.0 mph 80% 0.00 in 65.00 W/m2
09:04 18.0 °F 12.6 °F 30.30 in SSW 6.0 mph 6.0 mph 79% 0.00 in 84.00 W/m2
09:09 18.3 °F 13.2 °F 30.31 in SSW 4.0 mph 7.0 mph 80% 0.00 in 79.00 W/m2
09:14 18.5 °F 13.1 °F 30.30 in South 6.0 mph 7.0 mph 79% 0.00 in 105.00 W/m2
09:19 18.8 °F 13.4 °F 30.30 in SSW 6.0 mph 9.0 mph 79% 0.00 in 132.00 W/m2
09:24 19.2 °F 13.5 °F 30.30 in SSW 6.0 mph 9.0 mph 78% 0.00 in 165.00 W/m2
09:29 19.6 °F 13.6 °F 30.30 in SSW 5.0 mph 8.0 mph 77% 0.00 in 195.00 W/m2
09:34 20.0 °F 13.6 °F 30.30 in SSW 5.0 mph 8.0 mph 76% 0.00 in 239.00 W/m2
09:39 20.8 °F 14.1 °F 30.29 in South 5.0 mph 7.0 mph 75% 0.00 in 269.00 W/m2
09:44 21.5 °F 14.5 °F 30.29 in SW 6.0 mph 7.0 mph 74% 0.00 in 287.00 W/m2
09:49 22.0 °F 14.3 °F 30.29 in South 4.0 mph 6.0 mph 72% 0.00 in 304.00 W/m2
09:54 22.9 °F 15.2 °F 30.29 in South 1.0 mph 6.0 mph 72% 0.00 in 320.00 W/m2
09:59 22.4 °F 13.8 °F 30.30 in SW 6.0 mph 7.0 mph 69% 0.00 in 302.00 W/m2
10:04 22.1 °F 13.8 °F 30.29 in SW 4.0 mph 7.0 mph 70% 0.00 in 304.00 W/m2
10:09 21.4 °F 13.1 °F 30.29 in SW 4.0 mph 7.0 mph 70% 0.00 in 297.00 W/m2
10:14 20.9 °F 13.3 °F 30.29 in SW 4.0 mph 7.0 mph 72% 0.00 in 327.00 W/m2
10:19 21.1 °F 13.8 °F 30.29 in SW 7.0 mph 10.0 mph 73% 0.00 in 371.00 W/m2
10:24 21.7 °F 14.4 °F 30.28 in SSW 6.0 mph 10.0 mph 73% 0.00 in 376.00 W/m2
10:29 22.3 °F 15.0 °F 30.28 in SSW 8.0 mph 11.0 mph 73% 0.00 in 387.00 W/m2
10:34 23.0 °F 15.3 °F 30.28 in SW 8.0 mph 11.0 mph 72% 0.00 in 364.00 W/m2
10:39 23.8 °F 15.8 °F 30.28 in SW 10.0 mph 12.0 mph 71% 0.00 in 322.00 W/m2
10:44 24.0 °F 15.3 °F 30.28 in SSW 10.0 mph 12.0 mph 69% 0.00 in 244.00 W/m2
10:49 24.0 °F 15.3 °F 30.27 in SSW 8.0 mph 12.0 mph 69% 0.00 in 297.00 W/m2
10:54 24.2 °F 15.5 °F 30.28 in South 6.0 mph 12.0 mph 69% 0.00 in 392.00 W/m2
10:59 24.6 °F 15.9 °F 30.28 in SW 6.0 mph 10.0 mph 69% 0.00 in 422.00 W/m2
11:04 24.8 °F 15.7 °F 30.28 in SW 7.0 mph 10.0 mph 68% 0.00 in 383.00 W/m2
11:09 25.2 °F 16.1 °F 30.27 in SW 5.0 mph 9.0 mph 68% 0.00 in 563.00 W/m2
11:14 26.0 °F 16.9 °F 30.27 in SW 4.0 mph 9.0 mph 68% 0.00 in 476.00 W/m2
11:19 26.2 °F 17.1 °F 30.26 in SSW 6.0 mph 9.0 mph 68% 0.00 in 413.00 W/m2
11:24 27.0 °F 17.5 °F 30.26 in SSW 4.0 mph 9.0 mph 67% 0.00 in 554.00 W/m2
11:29 27.7 °F 17.8 °F 30.26 in SW 6.0 mph 9.0 mph 66% 0.00 in 478.00 W/m2
11:34 27.8 °F 17.6 °F 30.26 in SSW 5.0 mph 10.0 mph 65% 0.00 in 573.00 W/m2
11:39 28.3 °F 18.4 °F 30.25 in SSW 8.0 mph 10.0 mph 66% 0.00 in 461.00 W/m2
11:44 28.5 °F 17.9 °F 30.25 in SW 8.0 mph 11.0 mph 64% 0.00 in 476.00 W/m2
11:49 28.7 °F 18.4 °F 30.25 in SSW 9.0 mph 15.0 mph 65% 0.00 in 638.00 W/m2
11:54 29.3 °F 18.6 °F 30.25 in SW 7.0 mph 15.0 mph 64% 0.00 in 598.00 W/m2
11:59 29.1 °F 18.4 °F 30.25 in SW 11.0 mph 14.0 mph 64% 0.00 in 568.00 W/m2
12:04 29.0 °F 18.3 °F 30.25 in SW 9.0 mph 13.0 mph 64% 0.00 in 550.00 W/m2
12:09 28.8 °F 18.5 °F 30.24 in SW 11.0 mph 13.0 mph 65% 0.00 in 490.00 W/m2
12:14 28.5 °F 18.6 °F 30.24 in SSW 6.0 mph 11.0 mph 66% 0.00 in 552.00 W/m2
12:19 28.7 °F 19.1 °F 30.23 in SW 8.0 mph 11.0 mph 67% 0.00 in 425.00 W/m2
12:24 28.7 °F 18.8 °F 30.23 in SW 8.0 mph 13.0 mph 66% 0.00 in 396.00 W/m2
12:29 28.7 °F 19.1 °F 30.23 in SSW 7.0 mph 13.0 mph 67% 0.00 in 380.00 W/m2
12:34 28.9 °F 19.3 °F 30.22 in SSW 8.0 mph 13.0 mph 67% 0.00 in 366.00 W/m2
12:39 29.2 °F 19.6 °F 30.21 in SSW 7.0 mph 14.0 mph 67% 0.00 in 359.00 W/m2
12:44 29.6 °F 19.6 °F 30.21 in South 4.0 mph 14.0 mph 66% 0.00 in 443.00 W/m2
12:49 30.1 °F 20.1 °F 30.21 in SSW 5.0 mph 13.0 mph 66% 0.00 in 633.00 W/m2
12:54 30.9 °F 20.5 °F 30.21 in SSW 5.0 mph 13.0 mph 65% 0.00 in 541.00 W/m2
12:59 31.3 °F 20.9 °F 30.21 in SSW 5.0 mph 13.0 mph 65% 0.00 in 538.00 W/m2
13:04 31.7 °F 20.9 °F 30.21 in South 5.0 mph 10.0 mph 64% 0.00 in 485.00 W/m2
13:09 31.7 °F 20.5 °F 30.20 in South 5.0 mph 10.0 mph 63% 0.00 in 499.00 W/m2
13:14 31.5 °F 20.7 °F 30.20 in SSW 10.0 mph 13.0 mph 64% 0.00 in 489.00 W/m2
13:19 31.4 °F 21.0 °F 30.20 in SSW 6.0 mph 13.0 mph 65% 0.00 in 471.00 W/m2
13:24 31.7 °F 21.3 °F 30.20 in SSW 7.0 mph 12.0 mph 65% 0.00 in 490.00 W/m2
13:29 31.8 °F 21.4 °F 30.20 in SSW 7.0 mph 11.0 mph 65% 0.00 in 482.00 W/m2
13:34 32.1 °F 22.0 °F 30.19 in SSW 6.0 mph 10.0 mph 66% 0.00 in 497.00 W/m2
13:39 32.4 °F 22.3 °F 30.19 in South 10.0 mph 10.0 mph 66% 0.00 in 555.00 W/m2
13:44 32.8 °F 22.7 °F 30.19 in SSW 7.0 mph 10.0 mph 66% 0.00 in 582.00 W/m2
13:49 33.2 °F 22.7 °F 30.19 in SSW 5.0 mph 10.0 mph 65% 0.00 in 710.00 W/m2
13:54 33.6 °F 23.4 °F 30.18 in South 7.0 mph 10.0 mph 66% 0.00 in 550.00 W/m2
13:59 33.2 °F 23.1 °F 30.18 in South 6.0 mph 11.0 mph 66% 0.00 in 483.00 W/m2
14:04 33.2 °F 23.8 °F 30.17 in SSW 7.0 mph 11.0 mph 68% 0.00 in 464.00 W/m2
14:09 33.0 °F 23.2 °F 30.17 in South 8.0 mph 12.0 mph 67% 0.00 in 441.00 W/m2
14:14 33.1 °F 23.7 °F 30.17 in South 9.0 mph 12.0 mph 68% 0.00 in 457.00 W/m2
14:19 33.4 °F 24.0 °F 30.16 in South 8.0 mph 12.0 mph 68% 0.00 in 483.00 W/m2
14:24 33.5 °F 24.1 °F 30.16 in South 8.0 mph 12.0 mph 68% 0.00 in 378.00 W/m2
14:29 33.6 °F 24.2 °F 30.16 in SSW 10.0 mph 13.0 mph 68% 0.00 in 573.00 W/m2
14:34 34.0 °F 24.5 °F 30.16 in SW 10.0 mph 13.0 mph 68% 0.00 in 819.00 W/m2
14:39 34.8 °F 25.0 °F 30.15 in SSW 10.0 mph 12.0 mph 67% 0.00 in 856.00 W/m2
14:44 35.5 °F 24.9 °F 30.15 in SSW 12.0 mph 14.0 mph 65% 0.00 in 853.00 W/m2
Bismarck, North Dakota, USA
Compliments of Weather Underground - 4 mb